Averill, Vermont
Current Conditions -  °F | °C
As of 5:35 AM on Friday 28 Nov 2014 (Local Time) from KEFK Reporting Station
Light Snow Light Snow  
Wind Chill: 20°   Ceiling: 1400
Heat Index: 20°   Visibility: 1.5mi
Dew Point: 19°   Wind: 0mph
Humidity: 93%   Direction: NA
Pressure: 30.01"   Gusts: NA
Location:  45°N, 71.71°W
Report Text: KEFK 281035Z AUTO 00000KT 1 1/2SM -SN BKN014 OVC020 M06/M07 A3001 RMK AO2 T10651075
Loading
Personal Weather Stations






























Interactive Weather Map New forecast layout! Learn more

10-Day Weather Forecast

Advertisements
Track Severe Weather on mobile